Time;durP1;ratioP1;P1;durP2;ratioP2;P2;SDS_P1;SDS_P2;PMS_P1;PMS_P2;Temp;Humidity;BMP_temperature;BMP_pressure;BME280_temperature;BME280_humidity;BME280_pressure;Samples;Min_cycle;Max_cycle;Signal;HPM_P1;HPM_P2
2021/10/06 00:00:40;;;;;;;;;;;;;;;;;;5027056;28;19912;-68
2021/10/06 00:03:06;;;;;;;;;;;;;;;;;;5027046;28;19906;-65
2021/10/06 00:05:32;;;;;;;;;;;;;;;;;;5026894;28;19916;-66
2021/10/06 00:07:58;;;;;;;;;;;;;;;;;;5026820;28;19905;-65
2021/10/06 00:10:24;;;;;;;;;;;;;;;;;;5026859;28;19952;-65
2021/10/06 00:12:50;;;;;;;;;;;;;;;;;;5026731;28;20372;-66
2021/10/06 00:15:16;;;;;;;;;;;;;;;;;;5026601;28;19905;-70
2021/10/06 00:17:42;;;;;;;;;;;;;;;;;;5026637;28;20418;-65
2021/10/06 00:20:08;;;;;;;;;;;;;;;;;;5026964;28;19906;-65
2021/10/06 00:22:34;;;;;;;;;;;;;;;;;;5026928;28;19917;-65
2021/10/06 00:25:00;;;;;;;;;;;;;;;;;;5026751;28;19905;-66
2021/10/06 00:27:26;;;;;;;;;;;;;;;;;;5030628;28;19905;-65
2021/10/06 00:29:51;;;;;;;;;;;;;;;;;;5030515;28;19980;-66
2021/10/06 00:32:17;;;;;;;;;;;;;;;;;;5030517;28;19905;-66
2021/10/06 00:34:43;;;;;;;;;;;;;;;;;;5030431;28;19936;-66
2021/10/06 00:37:09;;;;;;;;;;;;;;;;;;5030184;28;19917;-66
2021/10/06 00:39:35;;;;;;;;;;;;;;;;;;5029864;28;19905;-65
2021/10/06 00:42:01;;;;;;;;;;;;;;;;;;5030166;28;20021;-66
2021/10/06 00:44:27;;;;;;;;;;;;;;;;;;5029893;28;20348;-65
2021/10/06 00:46:53;;;;;;;;;;;;;;;;;;5030159;28;19909;-65
2021/10/06 00:49:19;;;;;;;;;;;;;;;;;;5030454;28;20449;-66
2021/10/06 00:51:45;;;;;;;;;;;;;;;;;;5030423;28;19951;-65
2021/10/06 00:54:11;;;;;;;;;;;;;;;;;;5030085;28;19906;-65
2021/10/06 00:56:37;;;;;;;;;;;;;;;;;;5029763;28;19997;-65
2021/10/06 00:59:03;;;;;;;;;;;;;;;;;;5030032;28;19912;-65
2021/10/06 01:01:28;;;;;;;;;;;;;;;;;;5028807;28;19905;-65
2021/10/06 01:03:54;;;;;;;;;;;;;;;;;;5030151;28;19929;-64
2021/10/06 01:06:20;;;;;;;;;;;;;;;;;;5029833;28;19911;-65
2021/10/06 01:08:46;;;;;;;;;;;;;;;;;;5029573;28;20280;-65
2021/10/06 01:11:12;;;;;;;;;;;;;;;;;;5029919;28;19932;-65
2021/10/06 01:13:38;;;;;;;;;;;;;;;;;;5029559;28;20249;-65
2021/10/06 01:16:04;;;;;;;;;;;;;;;;;;5029773;28;19909;-69
2021/10/06 01:18:30;;;;;;;;;;;;;;;;;;5030156;28;19905;-65
2021/10/06 01:20:56;;;;;;;;;;;;;;;;;;5029720;28;20395;-65
2021/10/06 01:23:22;;;;;;;;;;;;;;;;;;5029537;28;19955;-66
2021/10/06 01:25:48;;;;;;;;;;;;;;;;;;5029465;28;19941;-65
2021/10/06 01:28:14;;;;;;;;;;;;;;;;;;5029622;28;20028;-65
2021/10/06 01:30:40;;;;;;;;;;;;;;;;;;5029509;28;19912;-66
2021/10/06 01:33:06;;;;;;;;;;;;;;;;;;5029250;28;19920;-66
2021/10/06 01:35:32;;;;;;;;;;;;;;;;;;5029491;28;19932;-66
2021/10/06 01:37:58;;;;;;;;;;;;;;;;;;5028287;28;19972;-65
2021/10/06 01:40:24;;;;;;;;;;;;;;;;;;5029821;28;19909;-65
2021/10/06 01:42:50;;;;;;;;;;;;;;;;;;5029312;28;19980;-65
2021/10/06 01:45:16;;;;;;;;;;;;;;;;;;5028942;28;19917;-66
2021/10/06 01:47:41;;;;;;;;;;;;;;;;;;5029108;28;19916;-65
2021/10/06 01:50:07;;;;;;;;;;;;;;;;;;5028901;28;19912;-66
2021/10/06 01:52:33;;;;;;;;;;;;;;;;;;5028856;28;19933;-65
2021/10/06 01:54:59;;;;;;;;;;;;;;;;;;5028733;28;19912;-67
2021/10/06 01:57:25;;;;;;;;;;;;;;;;;;5029017;28;19959;-65
2021/10/06 01:59:51;;;;;;;;;;;;;;;;;;5028792;28;20276;-70
2021/10/06 02:02:17;;;;;;;;;;;;;;;;;;5028697;28;19913;-69
2021/10/06 02:04:43;;;;;;;;;;;;;;;;;;5028761;28;19909;-65
2021/10/06 02:07:09;;;;;;;;;;;;;;;;;;5028740;28;19912;-65
2021/10/06 02:09:35;;;;;;;;;;;;;;;;;;5028819;28;19913;-65
2021/10/06 02:12:01;;;;;;;;;;;;;;;;;;5028600;28;19905;-65
2021/10/06 02:14:27;;;;;;;;;;;;;;;;;;5028627;28;19905;-64
2021/10/06 02:16:53;;;;;;;;;;;;;;;;;;5030060;28;19968;-64
2021/10/06 02:19:19;;;;;;;;;;;;;;;;;;5029890;28;19906;-64
2021/10/06 02:21:45;;;;;;;;;;;;;;;;;;5030328;28;19905;-65
2021/10/06 02:24:11;;;;;;;;;;;;;;;;;;5029883;28;19910;-65
2021/10/06 02:26:37;;;;;;;;;;;;;;;;;;5030409;28;19905;-63
2021/10/06 02:29:03;;;;;;;;;;;;;;;;;;5030456;28;19912;-63
2021/10/06 02:31:29;;;;;;;;;;;;;;;;;;5029956;28;19905;-64
2021/10/06 02:33:54;;;;;;;;;;;;;;;;;;5030163;28;19928;-66
2021/10/06 02:36:20;;;;;;;;;;;;;;;;;;5029678;28;19909;-65
2021/10/06 02:38:46;;;;;;;;;;;;;;;;;;5029693;28;19905;-65
2021/10/06 02:41:12;;;;;;;;;;;;;;;;;;5029373;28;19984;-65
2021/10/06 02:43:38;;;;;;;;;;;;;;;;;;5028865;28;19909;-65
2021/10/06 02:46:04;;;;;;;;;;;;;;;;;;5027982;28;19917;-65
2021/10/06 02:48:30;;;;;;;;;;;;;;;;;;5027717;28;19912;-65
2021/10/06 02:50:56;;;;;;;;;;;;;;;;;;5028286;28;19912;-65
2021/10/06 02:53:22;;;;;;;;;;;;;;;;;;5027960;28;19909;-68
2021/10/06 02:55:48;;;;;;;;;;;;;;;;;;5027899;28;19910;-65
2021/10/06 02:58:14;;;;;;;;;;;;;;;;;;5027802;28;19944;-65
2021/10/06 03:00:40;;;;;;;;;;;;;;;;;;5027771;28;19992;-65
2021/10/06 03:03:06;;;;;;;;;;;;;;;;;;5027818;28;20318;-65
2021/10/06 03:05:31;;;;;;;;;;;;;;;;;;5027739;28;19917;-67
2021/10/06 03:07:57;;;;;;;;;;;;;;;;;;5028341;28;19952;-65
2021/10/06 03:10:23;;;;;;;;;;;;;;;;;;5028046;28;19928;-65
2021/10/06 03:12:49;;;;;;;;;;;;;;;;;;5027608;28;20008;-68
2021/10/06 03:15:15;;;;;;;;;;;;;;;;;;5026586;28;19905;-65
2021/10/06 03:17:41;;;;;;;;;;;;;;;;;;5027315;28;19910;-65
2021/10/06 03:20:07;;;;;;;;;;;;;;;;;;5026637;28;20003;-65
2021/10/06 03:22:33;;;;;;;;;;;;;;;;;;5027549;28;19905;-65
2021/10/06 03:24:59;;;;;;;;;;;;;;;;;;5027470;28;19905;-65
2021/10/06 03:27:25;;;;;;;;;;;;;;;;;;5027629;28;19906;-67
2021/10/06 03:29:51;;;;;;;;;;;;;;;;;;5027800;28;19956;-65
2021/10/06 03:32:17;;;;;;;;;;;;;;;;;;5027402;28;19909;-65
2021/10/06 03:34:43;;;;;;;;;;;;;;;;;;5027230;28;19909;-67
2021/10/06 03:37:09;;;;;;;;;;;;;;;;;;5027467;28;19909;-65
2021/10/06 03:39:34;;;;;;;;;;;;;;;;;;5027154;28;19912;-65
2021/10/06 03:42:00;;;;;;;;;;;;;;;;;;5027423;28;19905;-65
2021/10/06 03:44:26;;;;;;;;;;;;;;;;;;5027398;28;19909;-67
2021/10/06 03:46:55;;;;;;;;;;;;;;;;;;5027673;28;20296;-66
2021/10/06 03:49:21;;;;;;;;;;;;;;;;;;5027184;28;19905;-65
2021/10/06 03:51:47;;;;;;;;;;;;;;;;;;5027198;28;19905;-65
2021/10/06 03:54:13;;;;;;;;;;;;;;;;;;5027304;28;20226;-63
2021/10/06 03:56:39;;;;;;;;;;;;;;;;;;5027218;28;19910;-66
2021/10/06 03:59:05;;;;;;;;;;;;;;;;;;5025637;28;19913;-66
2021/10/06 04:01:31;;;;;;;;;;;;;;;;;;5026826;28;19912;-67
2021/10/06 04:03:57;;;;;;;;;;;;;;;;;;5027023;28;19979;-65
2021/10/06 04:06:23;;;;;;;;;;;;;;;;;;5026834;28;19905;-65
2021/10/06 04:08:49;;;;;;;;;;;;;;;;;;5027039;28;19954;-65
2021/10/06 04:11:15;;;;;;;;;;;;;;;;;;5027416;28;19906;-65
2021/10/06 04:13:41;;;;;;;;;;;;;;;;;;5026917;28;19905;-67
2021/10/06 04:18:59;;;;;;;;;;;;;;;;;;5025947;28;19905;-67
2021/10/06 04:21:25;;;;;;;;;;;;;;;;;;5026798;28;19981;-68
2021/10/06 04:23:51;;;;;;;;;;;;;;;;;;5027149;28;19905;-66
2021/10/06 04:26:17;;;;;;;;;;;;;;;;;;5026748;28;19905;-68
2021/10/06 04:28:43;;;;;;;;;;;;;;;;;;5026582;28;19912;-65
2021/10/06 04:31:09;;;;;;;;;;;;;;;;;;5026535;28;19906;-65
2021/10/06 04:33:35;;;;;;;;;;;;;;;;;;5026972;28;19955;-65
2021/10/06 04:36:01;;;;;;;;;;;;;;;;;;5026551;28;19944;-65
2021/10/06 04:38:27;;;;;;;;;;;;;;;;;;5026517;28;19905;-65
2021/10/06 04:40:53;;;;;;;;;;;;;;;;;;5026582;28;19928;-65
2021/10/06 04:43:19;;;;;;;;;;;;;;;;;;5026467;28;19906;-65
2021/10/06 04:45:45;;;;;;;;;;;;;;;;;;5026352;28;19924;-65
2021/10/06 04:48:11;;;;;;;;;;;;;;;;;;5026559;28;20323;-65
2021/10/06 04:50:37;;;;;;;;;;;;;;;;;;5026545;28;19906;-66
2021/10/06 04:53:06;;;;;;;;;;;;;;;;;;5026564;28;19909;-69
2021/10/06 04:55:32;;;;;;;;;;;;;;;;;;5026679;28;19916;-65
2021/10/06 04:57:58;;;;;;;;;;;;;;;;;;5026828;28;19906;-65
2021/10/06 05:00:24;;;;;;;;;;;;;;;;;;5026660;28;20441;-66
2021/10/06 05:02:50;;;;;;;;;;;;;;;;;;5026246;28;19973;-65
2021/10/06 05:05:16;;;;;;;;;;;;;;;;;;5026352;28;19905;-65
2021/10/06 05:07:42;;;;;;;;;;;;;;;;;;5026244;28;20018;-65
2021/10/06 05:10:08;;;;;;;;;;;;;;;;;;5026172;28;19905;-65
2021/10/06 05:12:34;;;;;;;;;;;;;;;;;;5028684;28;19913;-65
2021/10/06 05:15:00;;;;;;;;;;;;;;;;;;5029799;28;20364;-65
2021/10/06 05:17:26;;;;;;;;;;;;;;;;;;5029822;28;19909;-65
2021/10/06 05:19:59;;;;;;;;;;;;;;;;;;5030032;28;20008;-66
2021/10/06 05:22:25;;;;;;;;;;;;;;;;;;5029707;28;19933;-66
2021/10/06 05:24:51;;;;;;;;;;;;;;;;;;5030322;28;19912;-65
2021/10/06 05:27:17;;;;;;;;;;;;;;;;;;5029589;28;19937;-65
2021/10/06 05:29:42;;;;;;;;;;;;;;;;;;5029448;28;19906;-65
2021/10/06 05:32:08;;;;;;;;;;;;;;;;;;5029627;28;19909;-65
2021/10/06 05:34:34;;;;;;;;;;;;;;;;;;5029491;28;20371;-65
2021/10/06 05:37:00;;;;;;;;;;;;;;;;;;5028060;28;19909;-65
2021/10/06 05:39:26;;;;;;;;;;;;;;;;;;5030265;28;19905;-66
2021/10/06 05:41:52;;;;;;;;;;;;;;;;;;5029230;28;20459;-65
2021/10/06 05:44:18;;;;;;;;;;;;;;;;;;5029490;28;19906;-65
2021/10/06 05:46:44;;;;;;;;;;;;;;;;;;5029060;28;19928;-70
2021/10/06 05:49:11;;;;;;;;;;;;;;;;;;5029572;28;19944;-65
2021/10/06 05:51:37;;;;;;;;;;;;;;;;;;5029545;28;19905;-65
2021/10/06 05:54:03;;;;;;;;;;;;;;;;;;5028620;28;19905;-65
2021/10/06 05:56:29;;;;;;;;;;;;;;;;;;5028961;28;20356;-67
2021/10/06 05:58:55;;;;;;;;;;;;;;;;;;5029071;28;19936;-67
2021/10/06 06:01:24;;;;;;;;;;;;;;;;;;5029145;28;19928;-68
2021/10/06 06:03:49;;;;;;;;;;;;;;;;;;5029738;28;19912;-65
2021/10/06 06:06:15;;;;;;;;;;;;;;;;;;5028755;28;19948;-65
2021/10/06 06:08:41;;;;;;;;;;;;;;;;;;5028756;28;19906;-65
2021/10/06 06:11:07;;;;;;;;;;;;;;;;;;5028913;28;19912;-67
2021/10/06 06:13:33;;;;;;;;;;;;;;;;;;5028729;28;19941;-65
2021/10/06 06:15:59;;;;;;;;;;;;;;;;;;5028477;28;19913;-65
2021/10/06 06:18:25;;;;;;;;;;;;;;;;;;5027431;28;19905;-65
2021/10/06 06:20:51;;;;;;;;;;;;;;;;;;5027331;28;19905;-71
2021/10/06 06:23:17;;;;;;;;;;;;;;;;;;5027717;28;19906;-65
2021/10/06 06:25:43;;;;;;;;;;;;;;;;;;5028619;28;19912;-65
2021/10/06 06:28:09;;;;;;;;;;;;;;;;;;5028445;28;20471;-65
2021/10/06 06:30:35;;;;;;;;;;;;;;;;;;5028418;28;19905;-65
2021/10/06 06:33:01;;;;;;;;;;;;;;;;;;5029076;28;19905;-66
2021/10/06 06:35:27;;;;;;;;;;;;;;;;;;5028679;28;19928;-66
2021/10/06 06:37:53;;;;;;;;;;;;;;;;;;5028973;28;19912;-66
2021/10/06 06:40:28;;;;;;;;;;;;;;;;;;5028441;28;19905;-65
2021/10/06 06:42:57;;;;;;;;;;;;;;;;;;5028297;28;20335;-68
2021/10/06 06:45:22;;;;;;;;;;;;;;;;;;5028053;28;19925;-65
2021/10/06 06:47:48;;;;;;;;;;;;;;;;;;5028786;28;19905;-65
2021/10/06 06:50:14;;;;;;;;;;;;;;;;;;5028143;28;19964;-65
2021/10/06 06:52:40;;;;;;;;;;;;;;;;;;5028402;28;19951;-65
2021/10/06 06:55:06;;;;;;;;;;;;;;;;;;5027976;28;19905;-66
2021/10/06 06:57:32;;;;;;;;;;;;;;;;;;5028852;28;19981;-65
2021/10/06 06:59:58;;;;;;;;;;;;;;;;;;5028077;28;20411;-65
2021/10/06 07:02:24;;;;;;;;;;;;;;;;;;5028554;28;19928;-65
2021/10/06 07:04:50;;;;;;;;;;;;;;;;;;5026953;28;19905;-67
2021/10/06 07:07:16;;;;;;;;;;;;;;;;;;5040734;28;19916;-67
2021/10/06 07:09:49;;;;;;;;;;;;;;;;;;5047249;28;19909;-66
2021/10/06 07:12:15;;;;;;;;;;;;;;;;;;5044733;28;19908;-67
2021/10/06 07:14:41;;;;;;;;;;;;;;;;;;5039414;28;20018;-71
2021/10/06 07:17:07;;;;;;;;;;;;;;;;;;5043469;28;20012;-65
2021/10/06 07:19:32;;;;;;;;;;;;;;;;;;5044794;28;19908;-65
2021/10/06 07:21:58;;;;;;;;;;;;;;;;;;5046804;28;19905;-67
2021/10/06 07:24:25;;;;;;;;;;;;;;;;;;5046671;28;19998;-64
2021/10/06 07:26:50;;;;;;;;;;;;;;;;;;5047048;28;19905;-67
2021/10/06 07:29:16;;;;;;;;;;;;;;;;;;5046563;28;19951;-64
2021/10/06 07:31:42;;;;;;;;;;;;;;;;;;5046994;28;19909;-64
2021/10/06 07:34:08;;;;;;;;;;;;;;;;;;5046516;28;19932;-65
2021/10/06 07:36:34;;;;;;;;;;;;;;;;;;5046897;28;19909;-64
2021/10/06 07:39:00;;;;;;;;;;;;;;;;;;5046932;28;19905;-64
2021/10/06 07:41:26;;;;;;;;;;;;;;;;;;5046904;28;19927;-65
2021/10/06 07:43:52;;;;;;;;;;;;;;;;;;5046653;28;19909;-65
2021/10/06 07:46:21;;;;;;;;;;;;;;;;;;5046471;28;19917;-68
2021/10/06 07:48:47;;;;;;;;;;;;;;;;;;5038065;28;19927;-73
2021/10/06 07:51:13;;;;;;;;;;;;;;;;;;5031534;28;19909;-74
2021/10/06 07:53:39;;;;;;;;;;;;;;;;;;5031187;28;19909;-71
2021/10/06 07:56:05;;;;;;;;;;;;;;;;;;5032927;28;20004;-69
2021/10/06 07:58:31;;;;;;;;;;;;;;;;;;5038710;28;19916;-72
2021/10/06 08:00:57;;;;;;;;;;;;;;;;;;5044911;28;19905;-68
2021/10/06 08:03:23;;;;;;;;;;;;;;;;;;5045482;28;19952;-65
2021/10/06 08:05:48;;;;;;;;;;;;;;;;;;5045191;28;19912;-68
2021/10/06 08:08:14;;;;;;;;;;;;;;;;;;5046587;28;20004;-66
2021/10/06 08:10:40;;;;;;;;;;;;;;;;;;5046192;28;19905;-65
2021/10/06 08:13:06;;;;;;;;;;;;;;;;;;5044824;28;19913;-66
2021/10/06 08:15:32;;;;;;;;;;;;;;;;;;5039390;28;19909;-67
2021/10/06 08:17:58;;;;;;;;;;;;;;;;;;5037953;28;19916;-69
2021/10/06 08:20:24;;;;;;;;;;;;;;;;;;5043140;28;19905;-72
2021/10/06 08:22:50;;;;;;;;;;;;;;;;;;5044498;28;19911;-65
2021/10/06 08:25:16;;;;;;;;;;;;;;;;;;5034634;28;19905;-65
2021/10/06 08:27:42;;;;;;;;;;;;;;;;;;5021292;28;19916;-72
2021/10/06 08:30:08;;;;;;;;;;;;;;;;;;5016727;28;19912;-68
2021/10/06 08:32:34;;;;;;;;;;;;;;;;;;5024448;28;19911;-65
2021/10/06 08:35:00;;;;;;;;;;;;;;;;;;5027305;28;19906;-65
2021/10/06 08:37:26;;;;;;;;;;;;;;;;;;5032610;28;19947;-65
2021/10/06 08:39:52;;;;;;;;;;;;;;;;;;5045704;28;19909;-66
2021/10/06 08:42:18;;;;;;;;;;;;;;;;;;5045551;28;19941;-65
2021/10/06 08:44:46;;;;;;;;;;;;;;;;;;5045966;28;19933;-68
2021/10/06 08:47:12;;;;;;;;;;;;;;;;;;5047800;28;19920;-66
2021/10/06 08:49:38;;;;;;;;;;;;;;;;;;5050071;28;20003;-66
2021/10/06 08:52:04;;;;;;;;;;;;;;;;;;5048136;28;19912;-67
2021/10/06 08:54:31;;;;;;;;;;;;;;;;;;5048686;28;19909;-66
2021/10/06 08:56:57;;;;;;;;;;;;;;;;;;5046991;28;19936;-67
2021/10/06 08:59:23;;;;;;;;;;;;;;;;;;5049937;28;20332;-67
2021/10/06 09:01:49;;;;;;;;;;;;;;;;;;5043290;28;20322;-65
2021/10/06 09:04:15;;;;;;;;;;;;;;;;;;5048590;28;19905;-66
2021/10/06 09:06:40;;;;;;;;;;;;;;;;;;5049039;28;19908;-66
2021/10/06 09:09:06;;;;;;;;;;;;;;;;;;5049809;28;19905;-65
2021/10/06 09:11:32;;;;;;;;;;;;;;;;;;5049555;28;19913;-65
2021/10/06 09:13:58;;;;;;;;;;;;;;;;;;5049481;28;19905;-66
2021/10/06 09:16:25;;;;;;;;;;;;;;;;;;5049525;28;19908;-65
2021/10/06 09:18:54;;;;;;;;;;;;;;;;;;5049791;28;19909;-65
2021/10/06 09:21:19;;;;;;;;;;;;;;;;;;5049477;28;20030;-66
2021/10/06 09:23:46;;;;;;;;;;;;;;;;;;5048995;28;19906;-67
2021/10/06 09:26:12;;;;;;;;;;;;;;;;;;5049349;28;19940;-65
2021/10/06 09:28:38;;;;;;;;;;;;;;;;;;5049455;28;19912;-69
2021/10/06 09:31:04;;;;;;;;;;;;;;;;;;5049623;28;19912;-65
2021/10/06 09:33:30;;;;;;;;;;;;;;;;;;5049145;28;19905;-66
2021/10/06 09:35:55;;;;;;;;;;;;;;;;;;5049440;28;19936;-65
2021/10/06 09:38:21;;;;;;;;;;;;;;;;;;5048279;28;19906;-68
2021/10/06 09:40:47;;;;;;;;;;;;;;;;;;5028822;28;19936;-65
2021/10/06 09:43:13;;;;;;;;;;;;;;;;;;5027143;28;19909;-67
2021/10/06 09:45:39;;;;;;;;;;;;;;;;;;5028697;28;19921;-67
2021/10/06 09:48:05;;;;;;;;;;;;;;;;;;5027298;28;20356;-65
2021/10/06 09:50:31;;;;;;;;;;;;;;;;;;5028590;28;19905;-70
2021/10/06 09:52:57;;;;;;;;;;;;;;;;;;5028798;28;19928;-65
2021/10/06 09:55:23;;;;;;;;;;;;;;;;;;5029121;28;20237;-65
2021/10/06 09:57:49;;;;;;;;;;;;;;;;;;5028565;28;19941;-65
2021/10/06 10:00:20;;;;;;;;;;;;;;;;;;5027088;28;20000;-66
2021/10/06 10:02:46;;;;;;;;;;;;;;;;;;5046601;28;19909;-71
2021/10/06 10:05:12;;;;;;;;;;;;;;;;;;5036021;28;19917;-69
2021/10/06 10:07:38;;;;;;;;;;;;;;;;;;5038247;28;20039;-73
2021/10/06 10:10:04;;;;;;;;;;;;;;;;;;5040331;28;19909;-66
2021/10/06 10:12:30;;;;;;;;;;;;;;;;;;5039787;28;19905;-69
2021/10/06 10:14:55;;;;;;;;;;;;;;;;;;5039974;28;19909;-73
2021/10/06 10:17:21;;;;;;;;;;;;;;;;;;5034548;28;19913;-68
2021/10/06 10:19:47;;;;;;;;;;;;;;;;;;5020440;28;19929;-74
2021/10/06 10:22:13;;;;;;;;;;;;;;;;;;5023550;28;19995;-66
2021/10/06 10:24:39;;;;;;;;;;;;;;;;;;5037552;28;19915;-72
2021/10/06 10:27:05;;;;;;;;;;;;;;;;;;5024582;28;19905;-74
2021/10/06 10:29:31;;;;;;;;;;;;;;;;;;5026928;28;20260;-65
2021/10/06 10:31:57;;;;;;;;;;;;;;;;;;5035036;28;19911;-74
2021/10/06 10:34:23;;;;;;;;;;;;;;;;;;5046351;28;19905;-66
2021/10/06 10:36:49;;;;;;;;;;;;;;;;;;5045920;28;19909;-69
2021/10/06 10:39:15;;;;;;;;;;;;;;;;;;5046912;28;19905;-65
2021/10/06 10:41:41;;;;;;;;;;;;;;;;;;5047870;28;19960;-68
2021/10/06 10:44:12;;;;;;;;;;;;;;;;;;5047719;28;19980;-69
2021/10/06 10:46:38;;;;;;;;;;;;;;;;;;5047693;28;19945;-66
2021/10/06 10:49:04;;;;;;;;;;;;;;;;;;5047750;28;19905;-68
2021/10/06 10:51:30;;;;;;;;;;;;;;;;;;5048166;28;19913;-67
2021/10/06 10:53:57;;;;;;;;;;;;;;;;;;5047628;28;19909;-70
2021/10/06 10:56:23;;;;;;;;;;;;;;;;;;5042775;28;19935;-72
2021/10/06 10:58:48;;;;;;;;;;;;;;;;;;5042679;28;20451;-71
2021/10/06 11:01:14;;;;;;;;;;;;;;;;;;5047540;28;19912;-65
2021/10/06 11:03:40;;;;;;;;;;;;;;;;;;5047464;28;19905;-66
2021/10/06 11:06:07;;;;;;;;;;;;;;;;;;5031077;28;19914;-66
2021/10/06 11:08:35;;;;;;;;;;;;;;;;;;5027450;28;19909;-68
2021/10/06 11:11:01;;;;;;;;;;;;;;;;;;5042101;28;19905;-67
2021/10/06 11:13:27;;;;;;;;;;;;;;;;;;5045468;28;19944;-65
2021/10/06 11:15:53;;;;;;;;;;;;;;;;;;5027388;28;19905;-66
2021/10/06 11:18:21;;;;;;;;;;;;;;;;;;5027646;28;19931;-66
2021/10/06 11:20:47;;;;;;;;;;;;;;;;;;5027311;28;19905;-65
2021/10/06 11:23:13;;;;;;;;;;;;;;;;;;5025869;28;19985;-64
2021/10/06 11:25:39;;;;;;;;;;;;;;;;;;5027404;28;19989;-65
2021/10/06 11:28:05;;;;;;;;;;;;;;;;;;5025563;28;19905;-75
2021/10/06 11:30:31;;;;;;;;;;;;;;;;;;5021557;28;19912;-71
2021/10/06 11:32:56;;;;;;;;;;;;;;;;;;5018842;28;20364;-66
2021/10/06 11:35:22;;;;;;;;;;;;;;;;;;5042284;28;20391;-71
2021/10/06 11:37:48;;;;;;;;;;;;;;;;;;5045693;28;19909;-68
2021/10/06 11:40:14;;;;;;;;;;;;;;;;;;5041701;28;19949;-66
2021/10/06 11:42:40;;;;;;;;;;;;;;;;;;5026763;28;20272;-71
2021/10/06 11:45:06;;;;;;;;;;;;;;;;;;5025093;28;19920;-66
2021/10/06 11:47:32;;;;;;;;;;;;;;;;;;5026898;28;19959;-66
2021/10/06 11:49:58;;;;;;;;;;;;;;;;;;5027047;28;20272;-66
2021/10/06 11:52:24;;;;;;;;;;;;;;;;;;5026913;28;19912;-68
2021/10/06 11:54:50;;;;;;;;;;;;;;;;;;5027022;28;19905;-66
2021/10/06 11:57:18;;;;;;;;;;;;;;;;;;5026924;28;19909;-66
2021/10/06 11:59:43;;;;;;;;;;;;;;;;;;5026920;28;19948;-65
2021/10/06 12:02:09;;;;;;;;;;;;;;;;;;5026974;28;20387;-66
2021/10/06 12:04:35;;;;;;;;;;;;;;;;;;5026985;28;19912;-65
2021/10/06 12:07:01;;;;;;;;;;;;;;;;;;5026930;28;19964;-65
2021/10/06 12:09:27;;;;;;;;;;;;;;;;;;5026821;28;19913;-66
2021/10/06 12:11:53;;;;;;;;;;;;;;;;;;5026691;28;19906;-65
2021/10/06 12:14:19;;;;;;;;;;;;;;;;;;5026750;28;19951;-65
2021/10/06 12:16:45;;;;;;;;;;;;;;;;;;5026430;28;19980;-67
2021/10/06 12:19:11;;;;;;;;;;;;;;;;;;5026467;28;19912;-67
2021/10/06 12:21:40;;;;;;;;;;;;;;;;;;5029592;28;20284;-67
2021/10/06 12:24:06;;;;;;;;;;;;;;;;;;5029493;28;19948;-66
2021/10/06 12:26:32;;;;;;;;;;;;;;;;;;5030480;28;19916;-67
2021/10/06 12:28:58;;;;;;;;;;;;;;;;;;5030790;28;19905;-67
2021/10/06 12:31:26;;;;;;;;;;;;;;;;;;5042425;28;20391;-67
2021/10/06 12:33:52;;;;;;;;;;;;;;;;;;5044452;28;19911;-67
2021/10/06 12:36:18;;;;;;;;;;;;;;;;;;5044282;28;19909;-67
2021/10/06 12:38:44;;;;;;;;;;;;;;;;;;5046221;28;19980;-71
2021/10/06 12:41:10;;;;;;;;;;;;;;;;;;5041126;28;19909;-68
2021/10/06 12:43:36;;;;;;;;;;;;;;;;;;5038211;28;19936;-73
2021/10/06 12:46:02;;;;;;;;;;;;;;;;;;5035434;28;19960;-73
2021/10/06 12:48:28;;;;;;;;;;;;;;;;;;5038038;28;19912;-73
2021/10/06 12:50:54;;;;;;;;;;;;;;;;;;5039392;28;19940;-65
2021/10/06 12:53:20;;;;;;;;;;;;;;;;;;5018958;28;19909;-72
2021/10/06 12:55:46;;;;;;;;;;;;;;;;;;5018800;28;20388;-74
2021/10/06 12:58:12;;;;;;;;;;;;;;;;;;5040945;28;19905;-70
2021/10/06 13:00:38;;;;;;;;;;;;;;;;;;5043617;28;19905;-66
2021/10/06 13:03:04;;;;;;;;;;;;;;;;;;5041140;28;19909;-65
2021/10/06 13:05:30;;;;;;;;;;;;;;;;;;5035776;28;20384;-72
2021/10/06 13:07:56;;;;;;;;;;;;;;;;;;5037764;28;19908;-74
2021/10/06 13:10:21;;;;;;;;;;;;;;;;;;5037237;28;20326;-74
2021/10/06 13:12:47;;;;;;;;;;;;;;;;;;5036889;28;19909;-71
2021/10/06 13:15:13;;;;;;;;;;;;;;;;;;5040090;28;20287;-74
2021/10/06 13:17:39;;;;;;;;;;;;;;;;;;5038396;28;19913;-68
2021/10/06 13:20:05;;;;;;;;;;;;;;;;;;5041273;28;19909;-65
2021/10/06 13:22:31;;;;;;;;;;;;;;;;;;5038323;28;19905;-74
2021/10/06 13:24:57;;;;;;;;;;;;;;;;;;5042439;28;19909;-76
2021/10/06 13:27:23;;;;;;;;;;;;;;;;;;5034318;28;19909;-72
2021/10/06 13:29:49;;;;;;;;;;;;;;;;;;5039587;28;19959;-76
2021/10/06 13:32:15;;;;;;;;;;;;;;;;;;5037508;28;19916;-72
2021/10/06 13:34:41;;;;;;;;;;;;;;;;;;5037466;28;19905;-75
2021/10/06 13:37:07;;;;;;;;;;;;;;;;;;5036481;28;19913;-75
2021/10/06 13:39:33;;;;;;;;;;;;;;;;;;5044468;28;19908;-73
2021/10/06 13:41:59;;;;;;;;;;;;;;;;;;5037360;28;19924;-74
2021/10/06 13:44:24;;;;;;;;;;;;;;;;;;5036129;28;19916;-68
2021/10/06 13:46:51;;;;;;;;;;;;;;;;;;5040048;28;19917;-67
2021/10/06 13:49:17;;;;;;;;;;;;;;;;;;5046625;28;19948;-66
2021/10/06 13:51:43;;;;;;;;;;;;;;;;;;5048876;28;20316;-66
2021/10/06 13:54:08;;;;;;;;;;;;;;;;;;5048279;28;19992;-69
2021/10/06 13:56:34;;;;;;;;;;;;;;;;;;5046888;28;19909;-69
2021/10/06 13:59:00;;;;;;;;;;;;;;;;;;5045651;28;19986;-67
2021/10/06 14:01:26;;;;;;;;;;;;;;;;;;5044323;28;19924;-71
2021/10/06 14:03:52;;;;;;;;;;;;;;;;;;5044167;28;19995;-69
2021/10/06 14:06:18;;;;;;;;;;;;;;;;;;5043268;28;20356;-67
2021/10/06 14:08:44;;;;;;;;;;;;;;;;;;5039095;28;19939;-66
2021/10/06 14:11:10;;;;;;;;;;;;;;;;;;5036989;28;19939;-74
2021/10/06 14:13:37;;;;;;;;;;;;;;;;;;5037747;28;19909;-73
2021/10/06 14:16:03;;;;;;;;;;;;;;;;;;5041544;28;20386;-72
2021/10/06 14:18:30;;;;;;;;;;;;;;;;;;5038112;28;19943;-72
2021/10/06 14:20:56;;;;;;;;;;;;;;;;;;5045131;28;19971;-65
2021/10/06 14:23:22;;;;;;;;;;;;;;;;;;5044725;28;19916;-66
2021/10/06 14:25:50;;;;;;;;;;;;;;;;;;5039062;28;19908;-71
2021/10/06 14:28:15;;;;;;;;;;;;;;;;;;5038324;28;19905;-73
2021/10/06 14:30:41;;;;;;;;;;;;;;;;;;5041986;28;20846;-73
2021/10/06 14:33:08;;;;;;;;;;;;;;;;;;5043474;28;19960;-72
2021/10/06 14:35:35;;;;;;;;;;;;;;;;;;5047196;28;19905;-66
2021/10/06 14:38:01;;;;;;;;;;;;;;;;;;5037675;28;19916;-73
2021/10/06 14:40:27;;;;;;;;;;;;;;;;;;5043578;28;20342;-67
2021/10/06 14:42:53;;;;;;;;;;;;;;;;;;5045651;28;19932;-65
2021/10/06 14:45:23;;;;;;;;;;;;;;;;;;5045883;28;19917;-65
2021/10/06 14:47:49;;;;;;;;;;;;;;;;;;5045876;28;20308;-64
2021/10/06 14:50:15;;;;;;;;;;;;;;;;;;5047483;28;19936;-69
2021/10/06 14:52:41;;;;;;;;;;;;;;;;;;5045961;28;19905;-65
2021/10/06 14:55:06;;;;;;;;;;;;;;;;;;5045291;28;19965;-65
2021/10/06 14:57:34;;;;;;;;;;;;;;;;;;5044897;28;19913;-72
2021/10/06 15:00:00;;;;;;;;;;;;;;;;;;5042110;28;19913;-69
2021/10/06 15:02:26;;;;;;;;;;;;;;;;;;5045126;28;20035;-70
2021/10/06 15:04:59;;;;;;;;;;;;;;;;;;5081258;28;19916;-68
2021/10/06 15:07:25;;;;;;;;;;;;;;;;;;5081453;28;19920;-65
2021/10/06 15:09:51;;;;;;;;;;;;;;;;;;5082386;28;19919;-64
2021/10/06 15:12:17;;;;;;;;;;;;;;;;;;5084036;28;19909;-64
2021/10/06 15:14:46;;;;;;;;;;;;;;;;;;5083911;28;19908;-69
2021/10/06 15:17:11;;;;;;;;;;;;;;;;;;5084176;28;19913;-65
2021/10/06 15:19:37;;;;;;;;;;;;;;;;;;5084182;28;19975;-64
2021/10/06 15:22:03;;;;;;;;;;;;;;;;;;5084277;28;19913;-65
2021/10/06 15:24:29;;;;;;;;;;;;;;;;;;5084015;28;19919;-65
2021/10/06 15:26:55;;;;;;;;;;;;;;;;;;5083904;28;19920;-64
2021/10/06 15:29:21;;;;;;;;;;;;;;;;;;5083902;28;19924;-65
2021/10/06 15:31:47;;;;;;;;;;;;;;;;;;5083982;28;19909;-63
2021/10/06 15:34:13;;;;;;;;;;;;;;;;;;5083626;28;19931;-66
2021/10/06 15:36:39;;;;;;;;;;;;;;;;;;5082545;28;20333;-73
2021/10/06 15:39:05;;;;;;;;;;;;;;;;;;5076925;28;19909;-72
2021/10/06 15:41:31;;;;;;;;;;;;;;;;;;5080828;28;19913;-65
2021/10/06 15:43:57;;;;;;;;;;;;;;;;;;5083418;28;19917;-66
2021/10/06 15:46:23;;;;;;;;;;;;;;;;;;5082511;28;19969;-66
2021/10/06 15:48:49;;;;;;;;;;;;;;;;;;5081867;28;19912;-65
2021/10/06 15:51:15;;;;;;;;;;;;;;;;;;5079943;28;19915;-71
2021/10/06 15:53:41;;;;;;;;;;;;;;;;;;5081220;28;19966;-65
2021/10/06 15:56:07;;;;;;;;;;;;;;;;;;5079338;28;19958;-70
2021/10/06 15:58:33;;;;;;;;;;;;;;;;;;5081301;28;19919;-69
2021/10/06 16:00:59;;;;;;;;;;;;;;;;;;5081750;28;19984;-66
2021/10/06 16:03:25;;;;;;;;;;;;;;;;;;5087959;28;19921;-71
2021/10/06 16:05:51;;;;;;;;;;;;;;;;;;5101682;28;19966;-67
2021/10/06 16:08:17;;;;;;;;;;;;;;;;;;5099889;28;19915;-65
2021/10/06 16:10:43;;;;;;;;;;;;;;;;;;5098980;28;19963;-73
2021/10/06 16:13:08;;;;;;;;;;;;;;;;;;5101427;28;19992;-71
2021/10/06 16:15:34;;;;;;;;;;;;;;;;;;5092502;28;19909;-65
2021/10/06 16:18:00;;;;;;;;;;;;;;;;;;5071200;28;19914;-64
2021/10/06 16:20:26;;;;;;;;;;;;;;;;;;5089142;28;19940;-64
2021/10/06 16:22:52;;;;;;;;;;;;;;;;;;5069772;28;19916;-64
2021/10/06 16:25:18;;;;;;;;;;;;;;;;;;5087777;28;19916;-68
2021/10/06 16:27:44;;;;;;;;;;;;;;;;;;5089011;28;19909;-67
2021/10/06 16:30:10;;;;;;;;;;;;;;;;;;5084901;28;19909;-66
2021/10/06 16:32:45;;;;;;;;;;;;;;;;;;5088895;28;19909;-65
2021/10/06 16:35:11;;;;;;;;;;;;;;;;;;5089207;28;19999;-69
2021/10/06 16:37:37;;;;;;;;;;;;;;;;;;5089075;28;20385;-69
2021/10/06 16:40:03;;;;;;;;;;;;;;;;;;5089093;28;19916;-65